Flight Track Log - Related Links

Times and Time Zones

All times are in EDT time to prevent confusion due to time zone crossing. See the CCA998 flight status page for this flight to view local times or setup timezone preferences in your user account.

Time Position Orientation Groundspeed Altitude Reporting Facility
EDT Latitude Longitude Course Direction KTS MPH feet Rate Location/Type
Sun 01:58:18 PM 49.1898 -123.2054 280° West 169 194 1,000  Level FlightAware ADS-B (CYVR)
Sun 01:58:35 PM 49.1933 -123.2366 279° West 170 196 1,500 1,538 Climbing FlightAware ADS-B (CYVR)
Sun 01:58:57 PM 49.1961 -123.2662 278° West 177 204 2,000 1,263 Climbing FlightAware ADS-B (CYVR)
Sun 01:59:32 PM 49.2003 -123.3108 280° West 186 214 2,700 1,317 Climbing FlightAware ADS-B (CYVR)
Sun 01:59:38 PM 49.2004 -123.3113 278° West 181 208 2,900 1,000 Climbing FlightAware ADS-B (FAKM / KIM)
Sun 02:00:02 PM 49.2049 -123.3508 280° West 199 229 3,200 679 Climbing FlightAware ADS-B (CYVR)
Sun 02:00:31 PM 49.2089 -123.3847 280° West 224 258 3,500 766 Climbing FlightAware ADS-B (FAKM / KIM)
Sun 02:00:49 PM 49.2137 -123.4243 280° West 251 289 3,800 1,091 Climbing FlightAware ADS-B (FAKM / KIM)
Sun 02:01:04 PM 49.2166 -123.4488 280° West 267 307 4,100 1,579 Climbing FlightAware ADS-B (FAKM / KIM)
Sun 02:01:27 PM 49.2221 -123.4948 281° West 274 315 4,800 2,053 Climbing FlightAware ADS-B (FAKM / KIM)
Sun 02:01:42 PM 49.2255 -123.5220 281° West 276 318 5,400 2,400 Climbing FlightAware ADS-B (FAKM / KIM)
Sun 02:01:57 PM 49.2293 -123.5525 281° West 276 318 6,000 2,200 Climbing FlightAware ADS-B (FAKM / KIM)
Sun 02:02:12 PM 49.2334 -123.5817 284° West 281 323 6,500 1,800 Climbing FlightAware ADS-B (FAKM / KIM)
Sun 02:02:17 PM 49.2344 -123.5866 291° West 286 329 6,600 1,800 Climbing FlightAware ADS-B (FAKM / KIM)
Sun 02:02:22 PM 49.2386 -123.6005 300° West 288 331 6,800 2,455 Climbing FlightAware ADS-B (FAKM / KIM)
Sun 02:02:39 PM 49.2512 -123.6291 304° West 289 333 7,500 2,250 Climbing FlightAware ADS-B (FAKM / KIM)
Sun 02:02:54 PM 49.2617 -123.6537 303° West 290 334 8,000 2,200 Climbing FlightAware ADS-B (CYVR)
Sun 02:03:09 PM 49.2728 -123.6806 302° West 293 337 8,600 2,323 Climbing FlightAware ADS-B (FAKM / KIM)
Sun 02:03:25 PM 49.2842 -123.7084 302° West 294 338 9,200 2,167 Climbing FlightAware ADS-B (FAKM / KIM)
Sun 02:03:45 PM 49.2971 -123.7396 302° West 298 343 9,900 1,500 Climbing FlightAware ADS-B (CYVR)
Sun 02:04:17 PM 49.3221 -123.7999 302° West 323 372 10,500 1,161 Climbing FlightAware ADS-B (FAKM / KIM)
Sun 02:04:47 PM 49.3487 -123.8645 302° West 348 400 11,100 1,714 Climbing FlightAware ADS-B (FAKM / KIM)
Sun 02:05:20 PM 49.3759 -123.9308 302° West 352 405 12,300 2,190 Climbing FlightAware ADS-B (FAKM / KIM)
Sun 02:05:50 PM 49.4027 -123.9970 302° West 357 411 13,400 1,869 Climbing FlightAware ADS-B (FAKM / KIM)
Sun 02:06:21 PM 49.4304 -124.0656 302° West 371 427 14,200 1,839 Climbing FlightAware ADS-B (CYVR)
Sun 02:06:52 PM 49.4580 -124.1340 302° West 375 432 15,300 2,066 Climbing FlightAware ADS-B (CYVR)
Sun 02:07:22 PM 49.4858 -124.2028 302° West 379 436 16,300 1,900 Climbing FlightAware ADS-B (CYVR)
Sun 02:07:52 PM 49.5133 -124.2715 302° West 383 441 17,200 1,781 Climbing FlightAware ADS-B (CYVR)
Sun 02:08:26 PM 49.5453 -124.3511 302° West 390 449 18,200 1,636 Climbing FlightAware ADS-B (FAKM / KIM)
Sun 02:08:58 PM 49.5765 -124.4294 302° West 401 461 19,000 1,524 Climbing FlightAware ADS-B (FAKM / KIM)
Sun 02:09:29 PM 49.6057 -124.5023 302° West 408 470 19,800 1,619 Climbing FlightAware ADS-B (FAKM / KIM)
Sun 02:10:01 PM 49.6392 -124.5867 302° West 414 476 20,700 1,645 Climbing FlightAware ADS-B (FAKM / KIM)
Sun 02:10:31 PM 49.6680 -124.6593 302° West 417 480 21,500 1,571 Climbing FlightAware ADS-B (FAKM / KIM)
Sun 02:10:43 PM 49.6794 -124.6856 308° West 424 488 21,800 1,615 Climbing FlightAware ADS-B (CYVR)
Sun 02:10:57 PM 49.6999 -124.7197 318° Northwest 427 491 22,200 1,565 Climbing FlightAware ADS-B (FAKM / KIM)
Sun 02:11:29 PM 49.7468 -124.7803 320° Northwest 428 493 23,000 1,645 Climbing FlightAware ADS-B (FAKM / KIM)
Sun 02:11:59 PM 49.7940 -124.8434 319° Northwest 428 493 23,900 1,645 Climbing FlightAware ADS-B (FAKM / KIM)
Sun 02:12:31 PM 49.8409 -124.9063 319° Northwest 429 494 24,700 1,333 Climbing FlightAware ADS-B (FAKM / KIM)
Sun 02:13:02 PM 49.8862 -124.9689 318° Northwest 435 501 25,300 1,077 Climbing FlightAware ADS-B (FAKM / KIM)
Sun 02:13:49 PM 49.9567 -125.0663 318° Northwest 445 512 26,100 1,091 Climbing FlightAware ADS-B (FAKM / KIM)
Sun 02:14:19 PM 50.0051 -125.1332 318° Northwest 450 518 26,700 1,167 Climbing FlightAware ADS-B (FAKM / KIM)
Sun 02:15:01 PM 50.0711 -125.2246 318° Northwest 453 521 27,500 1,068 Climbing FlightAware ADS-B (FAKM / KIM)
Sun 02:15:32 PM 50.1200 -125.2926 318° Northwest 458 527 28,000 986 Climbing FlightAware ADS-B (FAKM / KIM)
Sun 02:16:14 PM 50.1865 -125.3852 318° Northwest 462 532 28,700 986 Climbing FlightAware ADS-B (FAKM / KIM)
Sun 02:16:45 PM 50.2327 -125.4499 318° Northwest 465 535 29,200 892 Climbing FlightAware ADS-B (FAKM / KIM)
Sun 02:17:28 PM 50.3031 -125.5488 318° Northwest 470 541 29,800 740 Climbing FlightAware ADS-B (FAKM / KIM)
Sun 02:17:58 PM 50.3521 -125.6178 318° Northwest 474 545 30,100 686 Climbing FlightAware ADS-B (FAKM / KIM)
Sun 02:19:13 PM 50.3566 -125.6242 318° Northwest 484 557 31,000 755 Climbing FlightAware ADS-B (CYVR)
Sun 02:20:37 PM 50.6000 -125.9833 318° Northwest 480 552 32,100 750 Climbing Vancouver Center
Sun 02:21:37 PM 50.7000 -126.1500 313° West 490 564 32,800 700 Climbing Vancouver Center
Sun 02:22:37 PM 50.8000 -126.2833 320° Northwest 490 564 33,500 600 Climbing Vancouver Center
Sun 02:23:37 PM 50.9000 -126.4167 320° Northwest 490 564 34,000 250 Climbing Vancouver Center
Sun 02:24:37 PM 51.0167 -126.5833 318° Northwest 500 575 34,000  Level Vancouver Center
Sun 02:25:37 PM 51.1000 -126.7167 315° West 500 575 34,000  Level Vancouver Center
Sun 02:26:37 PM 51.2000 -126.8833 314° West 490 564 34,000  Level Vancouver Center
Sun 02:27:37 PM 51.3000 -127.0333 317° Northwest 490 564 34,000  Level Vancouver Center
Sun 02:28:37 PM 51.4167 -127.2000 318° Northwest 490 564 34,000  Level Vancouver Center
Sun 02:29:37 PM 51.5000 -127.3333 315° West 490 564 34,000  Level Vancouver Center
Sun 02:30:37 PM 51.6000 -127.4833 317° Northwest 490 564 34,000  Level Vancouver Center
Sun 02:31:37 PM 51.7000 -127.6167 320° Northwest 490 564 34,000  Level Vancouver Center
Sun 02:32:37 PM 51.8167 -127.8000 316° Northwest 490 564 34,000  Level Vancouver Center
Sun 02:33:37 PM 51.9000 -127.9333 315° West 500 575 34,000  Level Vancouver Center
Sun 02:34:37 PM 52.0000 -128.0833 317° Northwest 490 564 34,000  Level Vancouver Center
Sun 02:35:37 PM 52.1000 -128.2500 314° West 490 564 34,000  Level Vancouver Center
Sun 02:36:37 PM 52.1833 -128.4000 312° West 500 575 34,000  Level Vancouver Center
Sun 02:37:37 PM 52.3000 -128.5833 316° Northwest 500 575 34,000  Level Vancouver Center
Sun 02:38:37 PM 52.4000 -128.7167 321° Northwest 490 564 34,000  Level Vancouver Center
Sun 02:39:37 PM 52.4833 -128.9000 307° West 490 564 34,000  Level Vancouver Center
Sun 02:40:37 PM 52.5833 -129.0500 318° Northwest 490 564 34,000  Level Vancouver Center
Sun 02:41:37 PM 52.6833 -129.2000 318° Northwest 490 564 34,000  Level Vancouver Center
Sun 02:42:37 PM 52.7833 -129.3500 318° Northwest 490 564 34,000  Level Vancouver Center
Sun 02:43:37 PM 52.8833 -129.5333 312° West 490 564 34,000  Level Vancouver Center
Sun 02:44:37 PM 52.9667 -129.6833 313° West 490 564 34,000  Level Vancouver Center
Sun 02:45:37 PM 53.0833 -129.8667 317° Northwest 490 564 34,000  Level Vancouver Center
Sun 02:46:37 PM 53.1667 -130.0167 313° West 490 564 34,000  Level Vancouver Center
Sun 02:47:37 PM 53.2667 -130.1667 318° Northwest 480 552 34,000  Level Vancouver Center
Sun 02:48:37 PM 53.3500 -130.3167 313° West 490 564 34,000  Level Vancouver Center
Sun 02:49:37 PM 53.4500 -130.5000 313° West 480 552 34,000  Level Vancouver Center
Sun 02:50:37 PM 53.5333 -130.6500 313° West 480 552 34,000  Level Vancouver Center
Sun 02:51:37 PM 53.6333 -130.8167 315° West 480 552 34,000  Level Vancouver Center
Sun 02:52:37 PM 53.7167 -130.9667 313° West 480 552 34,000  Level Vancouver Center
Sun 02:53:37 PM 53.8167 -131.1333 315° West 480 552 34,000  Level Vancouver Center
Sun 02:54:37 PM 53.9000 -131.3167 308° West 490 564 34,000  Level Vancouver Center
Sun 02:55:37 PM 53.9833 -131.4667 313° West 480 552 34,000  Level Vancouver Center
Sun 02:56:37 PM 54.1000 -131.6333 320° Northwest 480 552 34,000  Level Vancouver Center
Sun 02:57:37 PM 54.1833 -131.8167 308° West 480 552 34,000  Level Vancouver Center
Sun 02:58:37 PM 54.2833 -131.9833 316° Northwest 480 552 34,000  Level Vancouver Center
Sun 02:59:37 PM 54.3500 -132.1333 307° West 470 541 34,000  Level Vancouver Center
Sun 03:00:37 PM 54.4500 -132.3000 316° Northwest 470 541 34,000  Level Vancouver Center
Sun 03:01:37 PM 54.5333 -132.4667 311° West 470 541 34,000  Level Vancouver Center
Sun 03:02:37 PM 54.6333 -132.6333 316° Northwest 470 541 34,000  Level Vancouver Center
Sun 03:03:37 PM 54.7000 -132.7833 308° West 470 541 34,000  Level Vancouver Center
Sun 03:04:47 PM 54.8167 -132.9500 321° Northwest 470 541 34,000  Level Anchorage Center
Sun 03:05:47 PM 54.9000 -133.1167 311° West 470 541 34,000  Level Anchorage Center
Sun 03:06:47 PM 54.9833 -133.2833 311° West 480 552 34,000  Level Anchorage Center
Sun 03:07:37 PM 55.0500 -133.4833 300° West 480 552 34,000  Level Vancouver Center
Sun 03:08:37 PM 55.1500 -133.6500 316° Northwest 470 541 34,000  Level Vancouver Center
Sun 03:09:48 PM 55.2500 -133.8000 319° Northwest 480 552 34,000  Level Anchorage Center
Sun 03:10:48 PM 55.3500 -133.9833 314° West 480 552 34,000  Level Anchorage Center
Sun 03:11:48 PM 55.4333 -134.1667 309° West 480 552 34,000  Level Anchorage Center
Sun 03:12:48 PM 55.5167 -134.3333 311° West 480 552 34,000  Level Anchorage Center
Sun 03:13:48 PM 55.6000 -134.5167 309° West 480 552 34,000  Level Anchorage Center
Sun 03:14:48 PM 55.7000 -134.6833 317° Northwest 480 552 34,000  Level Anchorage Center
Sun 03:15:48 PM 55.7833 -134.8667 309° West 490 564 34,000  Level Anchorage Center
Sun 03:16:48 PM 55.8667 -135.0500 309° West 480 552 34,000  Level Anchorage Center
Sun 03:17:48 PM 55.9667 -135.2333 314° West 490 564 34,000  Level Anchorage Center
Sun 03:18:48 PM 56.0500 -135.4333 307° West 500 575 34,000  Level Anchorage Center
Sun 03:19:48 PM 56.1333 -135.6167 309° West 500 575 34,000  Level Anchorage Center
Sun 03:20:49 PM 56.2167 -135.8000 309° West 480 552 34,000  Level Anchorage Center
Sun 03:21:37 PM 56.2833 -136.0000 301° West 490 564 34,000  Level Vancouver Center
Sun 03:22:49 PM 56.3833 -136.1667 317° Northwest 500 575 34,000  Level Anchorage Center
Sun 03:23:49 PM 56.4667 -136.3500 309° West 490 564 34,000  Level Anchorage Center
Sun 03:24:49 PM 56.5667 -136.5500 312° West 490 564 34,000  Level Anchorage Center
Sun 03:25:49 PM 56.6500 -136.7333 310° West 480 552 34,000  Level Anchorage Center
Sun 03:26:49 PM 56.7333 -136.9333 307° West 490 564 34,000  Level Anchorage Center
Sun 03:27:50 PM 56.8167 -137.1167 310° West 490 564 34,000  Level Anchorage Center
Sun 03:28:50 PM 56.9000 -137.3167 307° West 480 552 34,000  Level Anchorage Center
Sun 03:29:50 PM 56.9833 -137.5167 307° West 490 564 34,000  Level Anchorage Center
Sun 03:30:50 PM 57.0667 -137.7167 308° West 500 575 34,000  Level Anchorage Center
Sun 03:31:50 PM 57.1667 -137.9167 313° West 510 587 34,000  Level Anchorage Center
Sun 03:32:50 PM 57.2500 -138.1167 308° West 500 575 34,000  Level Anchorage Center
Sun 03:33:50 PM 57.3333 -138.3333 306° West 500 575 34,000 450 Level Anchorage Center
Sun 03:34:50 PM 57.4167 -138.5333 308° West 500 575 34,900 800 Climbing Anchorage Center
Sun 03:35:50 PM 57.5000 -138.7333 308° West 500 575 35,600 545 Climbing Anchorage Center
Sun 03:36:51 PM 57.5833 -138.9333 308° West 490 564 36,000 198 Climbing Anchorage Center
Sun 03:37:51 PM 57.6667 -139.1500 306° West 500 575 36,000  Level Anchorage Center
Sun 03:38:51 PM 57.7500 -139.3667 306° West 500 575 36,000  Level Anchorage Center
Sun 03:39:51 PM 57.8333 -139.5667 308° West 500 575 36,000  Level Anchorage Center
Sun 03:40:51 PM 57.9167 -139.7833 306° West 490 564 36,000  Level Anchorage Center
Sun 03:41:52 PM 58.0000 -140.0000 306° West 500 575 36,000  Level Anchorage Center
Sun 03:42:51 PM 58.0833 -140.2167 306° West 500 575 36,000  Level Anchorage Center
Sun 03:43:52 PM 58.1667 -140.4167 308° West 510 587 36,000  Level Anchorage Center
Sun 03:44:52 PM 58.2500 -140.6333 306° West 510 587 36,000  Level Anchorage Center
Sun 03:45:52 PM 58.3333 -140.8667 304° West 520 598 36,000  Level Anchorage Center
Sun 03:46:52 PM 58.4167 -141.0833 306° West 510 587 36,000  Level Anchorage Center
Sun 03:47:52 PM 58.5000 -141.3000 306° West 540 621 36,000  Level Anchorage Center
Sun 03:48:52 PM 58.5833 -141.5167 306° West 550 633 36,000  Level Anchorage Center
Sun 03:49:52 PM 58.6667 -141.7333 307° West 530 610 36,000  Level Anchorage Center
Sun 03:50:52 PM 58.7500 -141.9500 307° West 480 552 36,000  Level Anchorage Center
Sun 03:51:52 PM 58.8333 -142.1667 307° West 490 564 36,000  Level Anchorage Center
Sun 03:52:53 PM 58.9000 -142.3833 301° West 470 541 36,000  Level Anchorage Center
Sun 03:53:53 PM 58.9667 -142.6000 301° West 490 564 36,000  Level Anchorage Center
Sun 03:54:53 PM 59.0500 -142.8333 305° West 480 552 36,000  Level Anchorage Center
Sun 03:55:53 PM 59.1333 -143.0500 307° West 490 564 36,000  Level Anchorage Center
Sun 03:56:53 PM 59.2000 -143.2667 301° West 490 564 36,000  Level Anchorage Center
Sun 03:57:53 PM 59.2833 -143.5000 305° West 500 575 36,000  Level Anchorage Center
Sun 03:58:53 PM 59.3500 -143.7167 301° West 480 552 36,000  Level Anchorage Center
Sun 03:59:53 PM 59.4167 -143.9333 301° West 480 552 36,000  Level Anchorage Center
Sun 04:00:54 PM 59.5000 -144.1667 305° West 490 564 36,000  Level Anchorage Center
Sun 04:07:08 PM 59.9535 -145.6046 302° West 488 562 36,000  Level FlightAware ADS-B (PAEN / ENA)
Sun 04:07:53 PM 60.0083 -145.7841 301° West 486 559 36,000  Level FlightAware ADS-B (PAEN / ENA)
Sun 04:08:35 PM 60.0583 -145.9492 301° West 485 558 36,000  Level FlightAware ADS-B (PAEN / ENA)
Sun 04:09:23 PM 60.1133 -146.1323 301° West 485 558 36,000  Level FlightAware ADS-B (PAEN / ENA)
Sun 04:10:08 PM 60.1648 -146.3049 301° West 487 560 36,000  Level FlightAware ADS-B (PAEN / ENA)
Sun 04:10:38 PM 60.1990 -146.4204 301° West 488 562 36,000  Level FlightAware ADS-B (PAEN / ENA)
Sun 04:11:09 PM 60.2353 -146.5433 301° West 489 563 36,000  Level FlightAware ADS-B (PAEN / ENA)
Sun 04:11:52 PM 60.2848 -146.7124 301° West 491 565 36,000  Level FlightAware ADS-B (PAEN / ENA)
Sun 04:12:24 PM 60.3207 -146.8355 300° West 490 564 36,000  Level FlightAware ADS-B (PAEN / ENA)
Sun 04:13:09 PM 60.3719 -147.0128 300° West 489 563 36,000  Level FlightAware ADS-B (PAEN / ENA)
Sun 04:13:54 PM 60.4230 -147.1907 300° West 489 563 36,000  Level FlightAware ADS-B (PAEN / ENA)
Sun 04:14:24 PM 60.4544 -147.3006 300° West 488 562 36,000  Level FlightAware ADS-B (PAEN / ENA)
Sun 04:14:54 PM 60.4907 -147.4286 300° West 488 562 36,000  Level FlightAware ADS-B (PAEN / ENA)
Sun 04:15:30 PM 60.5274 -147.5586 300° West 489 563 36,000  Level FlightAware ADS-B
Sun 04:16:00 PM 60.5650 -147.6928 300° West 488 562 36,000  Level FlightAware ADS-B
Sun 04:16:30 PM 60.5980 -147.8112 300° West 488 562 36,000  Level FlightAware ADS-B
Sun 04:17:09 PM 60.6395 -147.9606 299° West 490 564 36,000  Level FlightAware ADS-B (PAEN / ENA)
Sun 04:17:39 PM 60.6734 -148.0841 299° West 489 563 36,000  Level FlightAware ADS-B (PAEN / ENA)
Sun 04:18:10 PM 60.7078 -148.2095 299° West 490 564 36,000  Level FlightAware ADS-B
Sun 04:18:49 PM 60.7510 -148.3681 299° West 489 563 36,000  Level FlightAware ADS-B
Sun 04:19:23 PM 60.7879 -148.5044 299° West 489 563 36,000  Level FlightAware ADS-B (PAEN / ENA)
Sun 04:19:54 PM 60.8216 -148.6296 299° West 488 562 36,000  Level FlightAware ADS-B (PAEN / ENA)
Sun 04:20:24 PM 60.8549 -148.7541 299° West 489 563 36,000  Level FlightAware ADS-B (PAEN / ENA)
Sun 04:20:54 PM 60.8862 -148.8717 299° West 489 563 36,000  Level FlightAware ADS-B (PAEN / ENA)
Sun 04:21:24 PM 60.9186 -148.9944 299° West 489 563 36,000  Level FlightAware ADS-B (PAEN / ENA)
Sun 04:22:00 PM 60.9575 -149.1419 298° West 489 563 36,000  Level FlightAware ADS-B
Sun 04:22:39 PM 60.9978 -149.2962 298° West 489 563 36,000  Level FlightAware ADS-B
Sun 04:23:09 PM 61.0298 -149.4190 298° West 490 564 36,000  Level FlightAware ADS-B (PAEN / ENA)
Sun 04:23:39 PM 61.0620 -149.5437 298° West 489 563 36,000  Level FlightAware ADS-B (PAEN / ENA)
Sun 04:24:09 PM 61.0934 -149.6661 298° West 489 563 36,000  Level FlightAware ADS-B (PAEN / ENA)
Sun 04:24:39 PM 61.1256 -149.7920 298° West 488 562 36,000  Level FlightAware ADS-B (PAEN / ENA)
Sun 04:25:09 PM 61.1573 -149.9153 299° West 488 562 36,000  Level FlightAware ADS-B (PAEN / ENA)
Sun 04:25:39 PM 61.1921 -150.0361 303° West 489 563 36,000  Level FlightAware ADS-B (PAEN / ENA)
Sun 04:26:09 PM 61.2310 -150.1466 308° West 491 565 36,000  Level FlightAware ADS-B (PAEN / ENA)
Sun 04:26:40 PM 61.2744 -150.2632 307° West 490 564 36,000  Level FlightAware ADS-B
Sun 04:27:20 PM 61.3286 -150.4155 306° West 489 563 36,000  Level FlightAware ADS-B
Sun 04:27:51 PM 61.3699 -150.5341 306° West 491 565 36,000  Level FlightAware ADS-B
Sun 04:28:25 PM 61.4133 -150.6593 306° West 490 564 36,000  Level FlightAware ADS-B (PAEN / ENA)
Sun 04:28:55 PM 61.4542 -150.7780 306° West 491 565 36,000  Level FlightAware ADS-B (PAEN / ENA)
Sun 04:29:25 PM 61.4921 -150.8886 306° West 490 564 36,000  Level FlightAware ADS-B (PAEN / ENA)
Sun 04:29:55 PM 61.5328 -151.0079 305° West 490 564 36,000  Level FlightAware ADS-B (PAEN / ENA)
Sun 04:30:25 PM 61.5723 -151.1242 305° West 489 563 36,000  Level FlightAware ADS-B (PAEN / ENA)
Sun 04:30:55 PM 61.6113 -151.2399 305° West 489 563 36,000  Level FlightAware ADS-B (PAEN / ENA)
Sun 04:31:25 PM 61.6501 -151.3552 305° West 489 563 36,000  Level FlightAware ADS-B (PAEN / ENA)
Sun 04:31:56 PM 61.6895 -151.4731 305° West 489 563 36,000  Level FlightAware ADS-B (PAEN / ENA)
Sun 04:32:26 PM 61.7296 -151.5938 305° West 491 565 36,000  Level FlightAware ADS-B (PAEN / ENA)
Sun 04:32:56 PM 61.7661 -151.7041 305° West 491 565 36,000  Level FlightAware ADS-B (PAEN / ENA)
Sun 04:33:26 PM 61.8063 -151.8263 305° West 490 564 36,000  Level FlightAware ADS-B (PAEN / ENA)
Sun 04:34:02 PM 61.8531 -151.9691 305° West 490 564 36,000  Level FlightAware ADS-B
Sun 04:34:41 PM 61.9025 -152.1208 305° West 488 562 36,000  Level FlightAware ADS-B (PAEN / ENA)
Sun 04:35:11 PM 61.9400 -152.2374 304° West 488 562 36,000  Level FlightAware ADS-B (PAEN / ENA)
Sun 04:35:41 PM 61.9793 -152.3598 304° West 489 563 36,000  Level FlightAware ADS-B (PAEN / ENA)
Sun 04:36:11 PM 62.0170 -152.4775 304° West 487 560 36,000  Level FlightAware ADS-B (PAEN / ENA)
Sun 04:36:41 PM 62.0534 -152.5919 304° West 486 559 36,000  Level FlightAware ADS-B (PAEN / ENA)
Sun 04:37:11 PM 62.0916 -152.7124 304° West 487 560 36,000  Level FlightAware ADS-B (PAEN / ENA)
Sun 04:37:41 PM 62.1292 -152.8315 304° West 487 560 36,000  Level FlightAware ADS-B (PAEN / ENA)
Sun 04:38:11 PM 62.1664 -152.9500 304° West 485 558 36,000  Level FlightAware ADS-B (PAEN / ENA)
Sun 04:38:42 PM 62.2026 -153.0662 304° West 485 558 36,000  Level FlightAware ADS-B
Sun 04:39:22 PM 62.2537 -153.2313 304° West 486 559 36,000  Level FlightAware ADS-B
Sun 04:39:52 PM 62.2920 -153.3556 303° West 487 560 36,000  Level FlightAware ADS-B
Sun 04:40:22 PM 62.3287 -153.4756 303° West 487 560 36,000  Level FlightAware ADS-B
Sun 04:40:53 PM 62.3669 -153.6007 303° West 486 559 36,000  Level FlightAware ADS-B
Sun 04:41:23 PM 62.4041 -153.7236 303° West 486 559 36,000  Level FlightAware ADS-B
Sun 04:41:53 PM 62.4402 -153.8436 303° West 486 559 36,000  Level FlightAware ADS-B
Sun 04:42:23 PM 62.4771 -153.9666 303° West 485 558 36,000  Level FlightAware ADS-B
Sun 04:42:56 PM 62.5172 -154.1012 303° West 483 556 36,000  Level FlightAware ADS-B (PAEN / ENA)
Sun 04:43:33 PM 62.5617 -154.2514 303° West 484 557 36,000  Level FlightAware ADS-B
Sun 04:44:11 PM 62.6068 -154.4047 302° West 485 558 36,000  Level FlightAware ADS-B (PAEN / ENA)
Sun 04:44:41 PM 62.6433 -154.5301 302° West 484 557 36,000  Level FlightAware ADS-B (PAEN / ENA)
Sun 04:45:11 PM 62.6783 -154.6503 302° West 483 556 36,000  Level FlightAware ADS-B (PAEN / ENA)
Sun 04:45:41 PM 62.7119 -154.7663 302° West 481 554 36,000  Level FlightAware ADS-B (PAEN / ENA)
Sun 04:46:13 PM 62.7516 -154.9039 302° West 483 556 36,000  Level FlightAware ADS-B
Sun 04:46:53 PM 62.7993 -155.0712 302° West 483 556 36,000  Level FlightAware ADS-B
Sun 04:47:56 PM 62.8733 -155.3321 302° West 487 560 36,000  Level FlightAware ADS-B (PAEN / ENA)
Sun 04:48:59 PM 62.9333 -155.5667 302° West 470 541 36,000  Level Anchorage Center
Sun 04:49:59 PM 62.9833 -155.8333 293° West 490 564 36,000  Level Anchorage Center
Sun 04:50:59 PM 63.0500 -156.1000 299° West 480 552 36,000  Level Anchorage Center
Sun 04:51:59 PM 63.1000 -156.3667 293° West 470 541 36,000  Level Anchorage Center
Sun 04:57:51 PM 63.4169 -157.9585 293° West 463 533 36,000  Level FlightAware ADS-B
Sun 04:58:21 PM 63.4421 -158.0942 293° West 463 533 36,000  Level FlightAware ADS-B
Sun 04:58:50 PM 63.4667 -158.2274 293° West 463 533 36,000  Level FlightAware ADS-B
Sun 04:59:20 PM 63.4907 -158.3578 293° West 461 531 36,000  Level FlightAware ADS-B
Sun 04:59:49 PM 63.5134 -158.4828 293° West 459 528 36,000  Level FlightAware ADS-B
Sun 05:00:15 PM 63.5342 -158.5977 293° West 458 527 36,000  Level FlightAware ADS-B
Sun 05:00:49 PM 63.5617 -158.7494 293° West 458 527 36,000  Level FlightAware ADS-B
Sun 05:01:19 PM 63.5858 -158.8837 292° West 457 526 36,000  Level FlightAware ADS-B
Sun 05:01:50 PM 63.6089 -159.0139 292° West 457 526 36,000  Level FlightAware ADS-B
Sun 05:02:21 PM 63.6329 -159.1495 292° West 457 526 36,000  Level FlightAware ADS-B
Sun 05:02:48 PM 63.6543 -159.2713 292° West 457 526 36,000  Level FlightAware ADS-B
Sun 05:03:18 PM 63.6773 -159.4040 292° West 458 527 36,000  Level FlightAware ADS-B
Sun 05:03:50 PM 63.7015 -159.5438 292° West 456 525 36,000  Level FlightAware ADS-B
Sun 05:04:16 PM 63.7214 -159.6595 292° West 455 524 36,000  Level FlightAware ADS-B
Sun 05:04:49 PM 63.7462 -159.8050 292° West 454 522 36,000  Level FlightAware ADS-B
Sun 05:05:21 PM 63.7697 -159.9434 291° West 452 520 36,000  Level FlightAware ADS-B
Sun 05:05:50 PM 63.7913 -160.0722 291° West 453 521 36,000  Level FlightAware ADS-B
Sun 05:06:17 PM 63.8109 -160.1897 291° West 452 520 36,000  Level FlightAware ADS-B
Sun 05:06:49 PM 63.8344 -160.3311 291° West 452 520 36,000  Level FlightAware ADS-B
Sun 05:07:18 PM 63.8559 -160.4618 291° West 450 518 36,000  Level FlightAware ADS-B
Sun 05:07:50 PM 63.8794 -160.6051 291° West 447 514 36,000  Level FlightAware ADS-B
Sun 05:08:17 PM 63.8979 -160.7192 291° West 446 513 36,000  Level FlightAware ADS-B
Sun 05:09:00 PM 63.9258 -160.9088 288° West 445 512 36,000  Level FlightAware ADS-B
Sun 05:09:29 PM 63.9449 -161.0418 289° West 444 511 36,000  Level FlightAware ADS-B
Sun 05:09:55 PM 63.9575 -161.1293 289° West 443 510 36,000  Level FlightAware ADS-B
Sun 05:10:28 PM 63.9828 -161.3047 289° West 440 506 36,000  Level FlightAware ADS-B
Sun 05:10:58 PM 64.0013 -161.4337 289° West 439 505 36,000  Level FlightAware ADS-B
Sun 05:11:28 PM 64.0193 -161.5609 288° West 438 504 36,000  Level FlightAware ADS-B
Sun 05:11:58 PM 64.0388 -161.6995 288° West 438 504 36,000  Level FlightAware ADS-B
Sun 05:12:29 PM 64.0574 -161.8327 288° West 436 502 36,000  Level FlightAware ADS-B
Sun 05:12:59 PM 64.0750 -161.9602 288° West 435 501 36,000  Level FlightAware ADS-B
Sun 05:13:26 PM 64.0918 -162.0826 288° West 434 499 36,000  Level FlightAware ADS-B
Sun 05:13:58 PM 64.1109 -162.2231 288° West 433 498 36,000  Level FlightAware ADS-B
Sun 05:14:30 PM 64.1296 -162.3611 288° West 433 498 36,000  Level FlightAware ADS-B
Sun 05:14:59 PM 64.1462 -162.4850 287° West 432 497 36,000  Level FlightAware ADS-B
Sun 05:15:28 PM 64.1629 -162.6107 287° West 432 497 36,000  Level FlightAware ADS-B
Sun 05:16:01 PM 64.1825 -162.7593 287° West 432 497 36,000  Level FlightAware ADS-B
Sun 05:16:28 PM 64.1984 -162.8806 287° West 430 495 36,000  Level FlightAware ADS-B
Sun 05:16:56 PM 64.2142 -163.0015 287° West 428 493 36,000  Level FlightAware ADS-B
Sun 05:17:28 PM 64.2316 -163.1369 287° West 427 491 36,000  Level FlightAware ADS-B
Sun 05:17:59 PM 64.2482 -163.2670 287° West 427 491 36,000  Level FlightAware ADS-B
Sun 05:18:28 PM 64.2647 -163.3974 287° West 426 490 36,000  Level FlightAware ADS-B
Sun 05:18:56 PM 64.2804 -163.5218 287° West 427 491 36,000  Level FlightAware ADS-B
Sun 05:19:27 PM 64.2965 -163.6519 286° West 428 493 36,000  Level FlightAware ADS-B
Sun 05:20:00 PM 64.3144 -163.7966 286° West 430 495 36,000  Level FlightAware ADS-B
Sun 05:20:30 PM 64.3308 -163.9304 286° West 432 497 36,000  Level FlightAware ADS-B
Sun 05:21:00 PM 64.3467 -164.0616 286° West 433 498 36,000  Level FlightAware ADS-B
Sun 05:21:29 PM 64.3623 -164.1897 286° West 434 499 36,000  Level FlightAware ADS-B
Sun 05:21:58 PM 64.3783 -164.3241 286° West 434 499 36,000  Level FlightAware ADS-B
Sun 05:22:27 PM 64.3935 -164.4516 286° West 434 499 36,000  Level FlightAware ADS-B
Sun 05:22:58 PM 64.4094 -164.5883 286° West 434 499 36,000  Level FlightAware ADS-B
Sun 05:23:27 PM 64.4248 -164.7200 286° West 436 502 36,000  Level FlightAware ADS-B
Sun 05:23:53 PM 64.4384 -164.8377 285° West 436 502 36,000  Level FlightAware ADS-B
Sun 05:24:28 PM 64.4565 -164.9957 285° West 436 502 36,000  Level FlightAware ADS-B
Sun 05:25:00 PM 64.4723 -165.1374 284° West 436 502 36,000  Level FlightAware ADS-B
Sun 05:25:27 PM 64.4817 -165.2593 278° West 441 507 36,000  Level FlightAware ADS-B
Sun 05:26:03 PM 64.4863 -165.4326 271° West 446 513 36,000  Level FlightAware ADS-B
Sun 05:26:32 PM 64.4867 -165.5744 271° West 446 513 36,000  Level FlightAware ADS-B
Sun 05:27:02 PM 64.4871 -165.7100 271° West 447 514 36,000  Level FlightAware ADS-B
Sun 05:27:36 PM 64.4874 -165.8757 271° West 449 517 36,000  Level FlightAware ADS-B
Sun 05:28:04 PM 64.4875 -166.0110 271° West 449 517 36,000  Level FlightAware ADS-B
Sun 05:28:30 PM 64.4874 -166.1354 270° West 448 516 36,000  Level FlightAware ADS-B
Sun 05:29:04 PM 64.4872 -166.2988 270° West 447 514 36,000  Level FlightAware ADS-B
Sun 05:29:33 PM 64.4869 -166.4359 270° West 446 513 36,000  Level FlightAware ADS-B
Sun 05:29:55 PM 64.4865 -166.5426 270° West 446 513 36,000  Level FlightAware ADS-B
Sun 05:30:34 PM 64.4858 -166.7270 270° West 444 511 36,000  Level FlightAware ADS-B
Sun 05:31:06 PM 64.4851 -166.8781 270° West 445 512 36,000  Level FlightAware ADS-B
Sun 05:31:34 PM 64.4842 -167.0141 270° West 445 512 36,000  Level FlightAware ADS-B
Sun 05:32:01 PM 64.4833 -167.1397 269° West 446 513 36,000  Level FlightAware ADS-B
Sun 05:32:34 PM 64.4820 -167.2979 269° West 446 513 36,000  Level FlightAware ADS-B
Sun 05:32:58 PM 64.4810 -167.4093 269° West 446 513 36,000  Level FlightAware ADS-B
Sun 05:33:34 PM 64.4793 -167.5795 269° West 445 512 36,000  Level FlightAware ADS-B
Sun 05:33:56 PM 64.4781 -167.6851 269° West 445 512 36,000  Level FlightAware ADS-B
Sun 05:34:30 PM 64.4763 -167.8478 269° West 446 513 36,000  Level FlightAware ADS-B
Sun 05:34:58 PM 64.4746 -167.9813 269° West 447 514 36,000  Level FlightAware ADS-B
Sun 05:35:27 PM 64.4727 -168.1160 269° West 448 516 36,000  Level FlightAware ADS-B
Sun 05:36:04 PM 64.4700 -168.3008 268° West 449 517 36,000  Level FlightAware ADS-B
Sun 05:36:32 PM 64.4678 -168.4370 268° West 450 518 36,000  Level FlightAware ADS-B
Sun 05:37:03 PM 64.4654 -168.5811 268° West 450 518 36,000  Level FlightAware ADS-B
Sun 05:37:35 PM 64.4626 -168.7350 268° West 451 519 36,000  Level FlightAware ADS-B
Sun 05:38:06 PM 64.4598 -168.8882 268° West 452 520 36,000  Level FlightAware ADS-B
Sun 05:38:34 PM 64.4571 -169.0203 268° West 452 520 36,000  Level FlightAware ADS-B
Sun 05:39:09 PM 64.4606 -169.1866 279° West 447 514 36,000  Level FlightAware ADS-B
Sun 05:39:40 PM 64.4714 -169.3335 280° West 447 514 36,000  Level FlightAware ADS-B
Sun 05:40:09 PM 64.4816 -169.4721 280° West 448 516 36,000  Level FlightAware ADS-B
Sun 05:40:38 PM 64.4915 -169.6050 280° West 447 514 36,000  Level FlightAware ADS-B
Sun 05:41:10 PM 64.5030 -169.7583 280° West 446 513 36,000  Level FlightAware ADS-B
Sun 05:41:39 PM 64.5131 -169.8956 280° West 446 513 36,000  Level FlightAware ADS-B
Sun 05:42:12 PM 64.5237 -170.0444 280° West 446 513 36,000  Level FlightAware ADS-B
Sun 05:42:41 PM 64.5330 -170.1834 277° West 447 514 36,000  Level FlightAware ADS-B
Sun 05:43:07 PM 64.5369 -170.3126 277° West 447 514 36,000  Level FlightAware ADS-B
Sun 05:43:48 PM 64.5487 -170.5018 278° West 447 514 36,000  Level FlightAware ADS-B
Sun 05:44:21 PM 64.5579 -170.6575 278° West 448 516 36,000  Level FlightAware ADS-B
Sun 05:44:51 PM 64.5665 -170.8091 278° West 448 516 36,000  Level FlightAware ADS-B
Sun 05:45:18 PM 64.5736 -170.9332 278° West 450 518 36,000  Level FlightAware ADS-B
Sun 05:45:47 PM 64.5813 -171.0679 278° West 449 517 36,000  Level FlightAware ADS-B
Sun 05:46:21 PM 64.5906 -171.2313 278° West 448 516 36,000  Level FlightAware ADS-B
Sun 05:46:48 PM 64.5979 -171.3630 278° West 448 516 36,000  Level FlightAware ADS-B
Sun 05:47:19 PM 64.6062 -171.5119 278° West 448 516 36,000  Level FlightAware ADS-B
Sun 05:47:50 PM 64.6140 -171.6562 278° West 448 516 36,000  Level FlightAware ADS-B
Sun 05:48:19 PM 64.6215 -171.7959 278° West 449 517 36,000  Level FlightAware ADS-B
Sun 05:48:48 PM 64.6294 -171.9383 278° West 448 516 36,000  Level FlightAware ADS-B
Sun 05:49:20 PM 64.6375 -172.0894 278° West 448 516 36,000  Level FlightAware ADS-B
Sun 05:49:49 PM 64.6450 -172.2280 278° West 448 516 36,000  Level FlightAware ADS-B
Sun 05:50:19 PM 64.6526 -172.3661 278° West 449 517 36,000  Level FlightAware ADS-B
Sun 05:50:49 PM 64.6597 -172.4978 278° West 450 518 36,000  Level FlightAware ADS-B
Sun 05:51:33 PM 64.6696 -172.7287 276° West 451 519 36,000  Level FlightAware ADS-B
Sun 05:52:04 PM 64.6754 -172.8787 276° West 451 519 36,000  Level FlightAware ADS-B
Sun 05:52:33 PM 64.6806 -173.0190 275° West 451 519 36,000  Level FlightAware ADS-B
Sun 05:52:48 PM 64.6826 -173.0760 275° West 450 518 36,000  Level FlightAware ADS-B
Sun 05:53:35 PM 64.6913 -173.3144 275° West 449 517 36,000  Level FlightAware ADS-B
Sun 05:54:06 PM 64.6967 -173.4676 275° West 449 517 36,000  Level FlightAware ADS-B
Sun 05:54:32 PM 64.7013 -173.5931 275° West 449 517 36,000  Level FlightAware ADS-B
Sun 05:55:04 PM 64.7053 -173.7032 275° West 449 517 36,000  Level FlightAware ADS-B
Sun 05:55:36 PM 64.7122 -173.9021 275° West 449 517 36,000  Level FlightAware ADS-B
Sun 05:56:05 PM 64.7168 -174.0430 275° West 449 517 36,000  Level FlightAware ADS-B
Sun 05:56:32 PM 64.7210 -174.1721 275° West 448 516 36,000  Level FlightAware ADS-B
Sun 05:57:01 PM 64.7254 -174.3087 275° West 448 516 36,000  Level FlightAware ADS-B
Sun 05:57:32 PM 64.7299 -174.4609 274° West 448 516 36,000  Level FlightAware ADS-B
Sun 05:58:04 PM 64.7339 -174.5966 274° West 447 514 36,000  Level FlightAware ADS-B
Sun 05:58:29 PM 64.7369 -174.7044 274° West 447 514 36,000 14 Level FlightAware ADS-B
Sun 06:01:00 PM 64.7390 -175.4279 271° West  Level FlightAware Approximate
Sun 06:02:00 PM 64.7388 -175.7155 270° West  Level FlightAware Approximate
Sun 06:03:00 PM 64.7381 -176.0030 270° West  Level FlightAware Approximate
Sun 06:04:00 PM 64.7368 -176.2905 270° West  Level FlightAware Approximate
Sun 06:05:00 PM 64.7350 -176.5780 269° West  Level FlightAware Approximate
Sun 06:06:00 PM 64.7326 -176.8654 269° West  Level FlightAware Approximate
Sun 06:07:00 PM 64.7297 -177.1528 269° West  Level FlightAware Approximate
Sun 06:08:00 PM 64.7262 -177.4401 268° West  Level FlightAware Approximate
Sun 06:09:00 PM 64.7221 -177.7273 268° West  Level FlightAware Approximate
Sun 06:10:00 PM 64.7175 -178.0144 268° West  Level FlightAware Approximate
Sun 06:11:00 PM 64.7123 -178.3014 268° West  Level FlightAware Approximate
Sun 06:12:00 PM 64.7066 -178.5883 267° West  Level FlightAware Approximate
Sun 06:13:00 PM 64.7003 -178.8751 267° West  Level FlightAware Approximate
Sun 06:14:00 PM 64.6935 -179.1618 267° West  Level FlightAware Approximate
Sun 06:15:00 PM 64.6861 -179.4483 267° West  Level FlightAware Approximate
Sun 06:16:00 PM 64.6781 -179.7346 266° West  Level FlightAware Approximate
Sun 06:17:00 PM 64.6696 179.9793 266° West  Level FlightAware Approximate
Sun 06:18:00 PM 64.6739 179.6918 275° West  Level FlightAware Approximate
Sun 06:19:00 PM 64.6842 179.4059 275° West  Level FlightAware Approximate
Sun 06:20:00 PM 64.6939 179.1198 275° West  Level FlightAware Approximate
Sun 06:21:00 PM 64.7031 178.8336 274° West  Level FlightAware Approximate
Sun 06:22:00 PM 64.7118 178.5471 274° West  Level FlightAware Approximate
Sun 06:23:00 PM 64.7199 178.2604 274° West  Level FlightAware Approximate
Sun 06:24:00 PM 64.7274 177.9736 274° West  Level FlightAware Approximate
Sun 06:25:00 PM 64.7340 177.6866 272° West  Level FlightAware Approximate
Sun 06:26:00 PM 64.7376 177.3992 272° West  Level FlightAware Approximate
Sun 06:27:00 PM 64.7407 177.1117 272° West  Level FlightAware Approximate
Sun 06:28:00 PM 64.7433 176.8242 271° West  Level FlightAware Approximate
Sun 06:29:00 PM 64.7452 176.5367 271° West  Level FlightAware Approximate
Sun 06:30:00 PM 64.7467 176.2491 271° West  Level FlightAware Approximate
Sun 06:31:00 PM 64.7475 175.9615 271° West  Level FlightAware Approximate
Sun 06:32:00 PM 64.7478 175.6738 270° West  Level FlightAware Approximate
Sun 06:33:00 PM 64.7476 175.3862 270° West  Level FlightAware Approximate
Sun 06:34:00 PM 64.7468 175.0986 270° West  Level FlightAware Approximate
Sun 06:35:00 PM 64.7454 174.8110 269° West  Level FlightAware Approximate
Sun 06:36:00 PM 64.7435 174.5235 269° West  Level FlightAware Approximate
Sun 06:37:00 PM 64.7410 174.2359 269° West  Level FlightAware Approximate
Sun 06:38:00 PM 64.7380 173.9485 269° West  Level FlightAware Approximate
Sun 06:39:00 PM 64.7344 173.6611 268° West  Level FlightAware Approximate
Sun 06:40:00 PM 64.7303 173.3738 268° West  Level FlightAware Approximate
Sun 06:41:00 PM 64.7256 173.0866 268° West  Level FlightAware Approximate
Sun 06:42:00 PM 64.7203 172.7995 268° West  Level FlightAware Approximate
Sun 06:43:00 PM 64.7150 172.5125 268° West  Level FlightAware Approximate
Sun 06:44:00 PM 64.7102 172.2254 268° West  Level FlightAware Approximate
Sun 06:45:00 PM 64.7048 171.9385 268° West  Level FlightAware Approximate
Sun 06:46:00 PM 64.6988 171.6517 267° West  Level FlightAware Approximate
Sun 06:47:00 PM 64.6923 171.3651 267° West  Level FlightAware Approximate
Sun 06:48:00 PM 64.6852 171.0785 267° West  Level FlightAware Approximate
Sun 06:49:00 PM 64.6775 170.7922 267° West  Level FlightAware Approximate
Sun 06:50:00 PM 64.6693 170.5060 266° West  Level FlightAware Approximate
Sun 06:51:00 PM 64.6372 170.2319 250° West  Level FlightAware Approximate
Sun 06:52:00 PM 64.5939 169.9641 249° West  Level FlightAware Approximate
Sun 06:53:00 PM 64.5501 169.6972 249° West  Level FlightAware Approximate
Sun 06:54:00 PM 64.5059 169.4310 249° West  Level FlightAware Approximate
Sun 06:55:00 PM 64.4611 169.1658 249° West  Level FlightAware Approximate
Sun 06:56:00 PM 64.4159 168.9014 249° West  Level FlightAware Approximate
Sun 06:57:00 PM 64.3702 168.6379 248° West  Level FlightAware Approximate
Sun 06:58:00 PM 64.3241 168.3753 248° West  Level FlightAware Approximate
Sun 06:59:00 PM 64.2777 168.1134 248° West  Level FlightAware Approximate
Sun 07:00:00 PM 64.2309 167.8522 248° West  Level FlightAware Approximate
Sun 07:01:00 PM 64.1836 167.5920 247° West  Level FlightAware Approximate
Sun 07:02:00 PM 64.1359 167.3327 247° West  Level FlightAware Approximate
Sun 07:03:00 PM 64.0877 167.0742 247° West  Level FlightAware Approximate
Sun 07:04:00 PM 64.0390 166.8167 247° West  Level FlightAware Approximate
Sun 07:05:00 PM 63.9899 166.5601 247° West  Level FlightAware Approximate
Sun 07:06:00 PM 63.9403 166.3043 246° West  Level FlightAware Approximate
Sun 07:07:00 PM 63.8903 166.0495 246° West  Level FlightAware Approximate
Sun 07:08:00 PM 63.8399 165.7956 246° West  Level FlightAware Approximate
Sun 07:09:00 PM 63.7890 165.5426 246° West  Level FlightAware Approximate
Sun 07:10:00 PM 63.7376 165.2905 245° Southwest  Level FlightAware Approximate
Sun 07:11:00 PM 63.6858 165.0393 245° Southwest  Level FlightAware Approximate
Sun 07:12:00 PM 63.6336 164.7890 245° Southwest  Level FlightAware Approximate
Sun 07:13:00 PM 63.5810 164.5397 245° Southwest  Level FlightAware Approximate
Sun 07:14:00 PM 63.5279 164.2913 244° Southwest  Level FlightAware Approximate
Sun 07:15:00 PM 63.4744 164.0438 244° Southwest  Level FlightAware Approximate
Sun 07:16:00 PM 63.4205 163.7972 244° Southwest  Level FlightAware Approximate
Sun 07:17:00 PM 63.3661 163.5516 244° Southwest  Level FlightAware Approximate
Sun 07:18:00 PM 63.3114 163.3069 244° Southwest  Level FlightAware Approximate
Sun 07:19:00 PM 63.2562 163.0631 243° Southwest  Level FlightAware Approximate
Sun 07:20:00 PM 63.2006 162.8202 243° Southwest  Level FlightAware Approximate
Sun 07:21:00 PM 63.1446 162.5783 243° Southwest  Level FlightAware Approximate
Sun 07:22:00 PM 63.0882 162.3373 243° Southwest  Level FlightAware Approximate
Sun 07:23:00 PM 63.0314 162.0973 243° Southwest  Level FlightAware Approximate
Sun 07:24:00 PM 62.9742 161.8582 242° Southwest  Level FlightAware Approximate
Sun 07:25:00 PM 62.9165 161.6200 242° Southwest  Level FlightAware Approximate
Sun 07:26:00 PM 62.8585 161.3828 242° Southwest  Level FlightAware Approximate
Sun 07:27:00 PM 62.8001 161.1465 242° Southwest  Level FlightAware Approximate
Sun 07:28:00 PM 62.7413 160.9111 241° Southwest  Level FlightAware Approximate
Sun 07:29:00 PM 62.6821 160.6767 241° Southwest  Level FlightAware Approximate
Sun 07:30:00 PM 62.6225 160.4433 241° Southwest  Level FlightAware Approximate
Sun 07:31:00 PM 62.5625 160.2107 241° Southwest  Level FlightAware Approximate
Sun 07:32:00 PM 62.5021 159.9791 241° Southwest  Level FlightAware Approximate
Sun 07:33:00 PM 62.4413 159.7485 240° Southwest  Level FlightAware Approximate
Sun 07:34:00 PM 62.3802 159.5188 240° Southwest  Level FlightAware Approximate
Sun 07:35:00 PM 62.3187 159.2900 240° Southwest  Level FlightAware Approximate
Sun 07:36:00 PM 62.2568 159.0621 240° Southwest  Level FlightAware Approximate
Sun 07:37:00 PM 62.1946 158.8352 240° Southwest  Level FlightAware Approximate
Sun 07:38:00 PM 62.1319 158.6093 239° Southwest  Level FlightAware Approximate
Sun 07:39:00 PM 62.0689 158.3842 239° Southwest  Level FlightAware Approximate
Sun 07:40:00 PM 62.0056 158.1601 239° Southwest  Level FlightAware Approximate
Sun 07:41:00 PM 61.9419 157.9370 239° Southwest  Level FlightAware Approximate
Sun 07:42:00 PM 61.8778 157.7147 239° Southwest  Level FlightAware Approximate
Sun 07:43:00 PM 61.8134 157.4934 238° Southwest  Level FlightAware Approximate
Sun 07:44:00 PM 61.7486 157.2730 238° Southwest  Level FlightAware Approximate
Sun 07:45:00 PM 61.6834 157.0536 238° Southwest  Level FlightAware Approximate
Sun 07:46:00 PM 61.6179 156.8351 238° Southwest  Level FlightAware Approximate
Sun 07:47:00 PM 61.5521 156.6175 238° Southwest  Level FlightAware Approximate
Sun 07:48:00 PM 61.4859 156.4008 237° Southwest  Level FlightAware Approximate
Sun 07:49:00 PM 61.4194 156.1850 237° Southwest  Level FlightAware Approximate
Sun 07:50:00 PM 61.3525 155.9702 237° Southwest  Level FlightAware Approximate
Sun 07:51:00 PM 61.2853 155.7563 237° Southwest  Level FlightAware Approximate
Sun 07:52:00 PM 61.2178 155.5433 237° Southwest  Level FlightAware Approximate
Sun 07:53:00 PM 61.1499 155.3312 237° Southwest  Level FlightAware Approximate
Sun 07:54:00 PM 61.0817 155.1200 236° Southwest  Level FlightAware Approximate
Sun 07:55:00 PM 61.0132 154.9098 236° Southwest  Level FlightAware Approximate
Sun 07:56:00 PM 60.9443 154.7004 236° Southwest  Level FlightAware Approximate
Sun 07:57:00 PM 60.8752 154.4920 236° Southwest  Level FlightAware Approximate
Sun 07:58:00 PM 60.8057 154.2844 236° Southwest  Level FlightAware Approximate
Sun 07:59:00 PM 60.7359 154.0778 235° Southwest  Level FlightAware Approximate
Sun 08:00:00 PM 60.6657 153.8720 235° Southwest  Level FlightAware Approximate
Sun 08:01:00 PM 60.5953 153.6672 235° Southwest  Level FlightAware Approximate
Sun 08:02:00 PM 60.5245 153.4632 235° Southwest  Level FlightAware Approximate
Sun 08:03:00 PM 60.4534 153.2602 235° Southwest  Level FlightAware Approximate
Sun 08:04:00 PM 60.3821 153.0580 235° Southwest  Level FlightAware Approximate
Sun 08:05:00 PM 60.3104 152.8567 234° Southwest  Level FlightAware Approximate
Sun 08:06:00 PM 60.2384 152.6563 234° Southwest  Level FlightAware Approximate
Sun 08:07:00 PM 60.1661 152.4568 234° Southwest  Level FlightAware Approximate
Sun 08:08:00 PM 60.0935 152.2581 234° Southwest  Level FlightAware Approximate
Sun 08:09:00 PM 60.0206 152.0604 234° Southwest  Level FlightAware Approximate
Sun 08:10:00 PM 59.9475 151.8635 233° Southwest  Level FlightAware Approximate
Sun 08:11:00 PM 59.8740 151.6674 233° Southwest  Level FlightAware Approximate
Sun 08:12:00 PM 59.8003 151.4723 233° Southwest  Level FlightAware Approximate
Sun 08:13:00 PM 59.7262 151.2780 233° Southwest  Level FlightAware Approximate
Sun 08:14:00 PM 59.6519 151.0845 233° Southwest  Level FlightAware Approximate
Sun 08:15:00 PM 59.5773 150.8920 233° Southwest  Level FlightAware Approximate
Sun 08:16:00 PM 59.5024 150.7002 232° Southwest  Level FlightAware Approximate
Sun 08:16:11 PM 60.2830 150.8170 235° Southwest 474 545 38,000  Level FlightAware ADS-B
Sun 08:16:51 PM 60.2324 150.6730 235° Southwest 472 543 38,000  Level FlightAware ADS-B
Sun 08:17:32 PM 60.1818 150.5303 235° Southwest 473 544 38,000  Level FlightAware ADS-B
Sun 08:18:10 PM 60.1321 150.3908 234° Southwest 474 545 38,000  Level FlightAware ADS-B
Sun 08:18:49 PM 60.0825 150.2517 234° Southwest 476 548 38,000  Level FlightAware ADS-B
Sun 08:19:24 PM 60.0383 150.1286 234° Southwest 474 545 38,000 -27 Level FlightAware ADS-B
Sun 08:21:00 PM 59.9437 149.7846 241° Southwest  Level Estimated
Sun 08:22:00 PM 59.8842 149.5706 241° Southwest  Level Estimated
Sun 08:23:00 PM 59.7984 149.3726 241° Southwest  Level Estimated
Sun 08:24:00 PM 59.7383 149.1602 241° Southwest  Level Estimated
Sun 08:25:00 PM 59.6778 148.9485 241° Southwest  Level Estimated
Sun 08:26:00 PM 59.6170 148.7376 240° Southwest  Level Estimated
Sun 08:27:00 PM 59.5559 148.5274 240° Southwest  Level Estimated
Sun 08:28:00 PM 59.4944 148.3181 240° Southwest  Level Estimated
Sun 08:29:00 PM 59.4326 148.1094 240° Southwest  Level Estimated
Sun 08:30:00 PM 59.3704 147.9016 240° Southwest  Level Estimated
Sun 08:31:00 PM 59.3079 147.6945 239° Southwest  Level Estimated
Sun 08:32:00 PM 59.2452 147.4882 239° Southwest  Level Estimated
Sun 08:33:00 PM 59.1820 147.2826 239° Southwest  Level Estimated
Sun 08:34:00 PM 59.1186 147.0778 239° Southwest  Level Estimated
Sun 08:35:00 PM 59.0548 146.8737 239° Southwest  Level Estimated
Sun 08:36:00 PM 58.9907 146.6704 239° Southwest  Level Estimated
Sun 08:37:00 PM 58.9263 146.4679 238° Southwest  Level Estimated
Sun 08:38:00 PM 58.8616 146.2661 238° Southwest  Level Estimated
Sun 08:39:00 PM 58.7966 146.0651 238° Southwest  Level Estimated
Sun 08:40:00 PM 58.7312 145.8648 238° Southwest  Level Estimated
Sun 08:41:00 PM 58.6655 145.6653 238° Southwest  Level Estimated
Sun 08:42:00 PM 58.5996 145.4665 238° Southwest  Level Estimated
Sun 08:43:00 PM 58.5333 145.2685 237° Southwest  Level Estimated
Sun 08:44:00 PM 58.4667 145.0712 237° Southwest  Level Estimated
Sun 08:45:00 PM 58.3999 144.8747 237° Southwest  Level Estimated
Sun 08:46:00 PM 58.3327 144.6789 237° Southwest  Level Estimated
Sun 08:47:00 PM 58.2652 144.4839 237° Southwest  Level Estimated
Sun 08:48:00 PM 58.1974 144.2896 237° Southwest  Level Estimated
Sun 08:49:00 PM 58.1294 144.0961 236° Southwest  Level Estimated
Sun 08:50:00 PM 58.0610 143.9033 236° Southwest  Level Estimated
Sun 08:51:00 PM 57.9924 143.7112 236° Southwest  Level Estimated
Sun 08:52:00 PM 57.9235 143.5199 236° Southwest  Level Estimated
Sun 08:53:00 PM 57.8542 143.3293 236° Southwest  Level Estimated
Sun 08:54:00 PM 57.7847 143.1394 236° Southwest  Level Estimated
Sun 08:55:00 PM 57.7149 142.9503 235° Southwest  Level Estimated
Sun 08:56:00 PM 57.6449 142.7619 235° Southwest  Level Estimated
Sun 08:57:00 PM 57.5745 142.5742 235° Southwest  Level Estimated
Sun 08:58:00 PM 57.5039 142.3872 235° Southwest  Level Estimated
Sun 08:59:00 PM 57.4330 142.2010 235° Southwest  Level Estimated
Sun 09:00:00 PM 57.3618 142.0155 235° Southwest  Level Estimated
Sun 09:01:00 PM 57.2904 141.8307 234° Southwest  Level Estimated
Sun 09:02:00 PM 57.2187 141.6466 234° Southwest  Level Estimated
Sun 09:03:00 PM 57.1467 141.4633 234° Southwest  Level Estimated
Sun 09:04:00 PM 57.0744 141.2807 234° Southwest  Level Estimated
Sun 09:05:00 PM 57.0019 141.0987 234° Southwest  Level Estimated
Sun 09:06:00 PM 56.9292 140.9175 234° Southwest  Level Estimated
Sun 09:07:00 PM 56.8561 140.7370 234° Southwest  Level Estimated
Sun 09:08:00 PM 56.7828 140.5572 233° Southwest  Level Estimated
Sun 09:09:00 PM 56.7093 140.3781 233° Southwest  Level Estimated
Sun 09:10:00 PM 56.6355 140.1997 233° Southwest  Level Estimated
Sun 09:11:00 PM 56.5614 140.0220 233° Southwest  Level Estimated
Sun 09:12:00 PM 56.4871 139.8449 233° Southwest  Level Estimated
Sun 09:13:00 PM 56.4125 139.6686 233° Southwest  Level Estimated
Sun 09:14:00 PM 56.3377 139.4930 233° Southwest  Level Estimated
Sun 09:15:00 PM 56.2626 139.3181 232° Southwest  Level Estimated
Sun 09:16:00 PM 56.1873 139.1438 232° Southwest  Level Estimated
Sun 09:17:00 PM 56.1118 138.9702 232° Southwest  Level Estimated
Sun 09:18:00 PM 56.0360 138.7973 232° Southwest  Level Estimated
Sun 09:19:00 PM 55.9599 138.6251 232° Southwest  Level Estimated
Sun 09:20:00 PM 55.8837 138.4536 232° Southwest  Level Estimated
Sun 09:21:00 PM 55.8072 138.2827 231° Southwest  Level Estimated
Sun 09:22:00 PM 55.7304 138.1125 231° Southwest  Level Estimated
Sun 09:23:00 PM 55.6534 137.9430 231° Southwest  Level Estimated
Sun 09:24:00 PM 55.5762 137.7742 231° Southwest  Level Estimated
Sun 09:25:00 PM 55.4987 137.6060 231° Southwest  Level Estimated
Sun 09:26:00 PM 55.4211 137.4384 231° Southwest  Level Estimated
Sun 09:27:00 PM 55.3432 137.2716 231° Southwest  Level Estimated
Sun 09:28:00 PM 55.2650 137.1054 231° Southwest  Level Estimated
Sun 09:29:00 PM 55.1867 136.9398 230° Southwest  Level Estimated
Sun 09:30:00 PM 55.1081 136.7749 230° Southwest  Level Estimated
Sun 09:31:00 PM 55.0293 136.6106 230° Southwest  Level Estimated
Sun 09:32:00 PM 54.9503 136.4470 230° Southwest  Level Estimated
Sun 09:33:00 PM 54.8710 136.2840 230° Southwest  Level Estimated
Sun 09:34:00 PM 54.7916 136.1217 230° Southwest  Level Estimated
Sun 09:35:00 PM 54.7119 135.9600 230° Southwest  Level Estimated
Sun 09:36:00 PM 54.6320 135.7990 229° Southwest  Level Estimated
Sun 09:37:00 PM 54.5519 135.6385 229° Southwest  Level Estimated
Sun 09:38:00 PM 54.4716 135.4787 229° Southwest  Level Estimated
Sun 09:39:00 PM 54.3911 135.3196 229° Southwest  Level Estimated
Sun 09:40:00 PM 54.3103 135.1610 229° Southwest  Level Estimated
Sun 09:41:00 PM 54.2294 135.0031 229° Southwest  Level Estimated
Sun 09:42:00 PM 54.1483 134.8458 229° Southwest  Level Estimated
Sun 09:43:00 PM 54.0669 134.6891 229° Southwest  Level Estimated
Sun 09:44:00 PM 53.9854 134.5330 228° Southwest  Level Estimated
Sun 09:45:00 PM 53.9036 134.3775 228° Southwest  Level Estimated
Sun 09:46:00 PM 53.8217 134.2227 228° Southwest  Level Estimated
Sun 09:47:00 PM 53.7395 134.0684 228° Southwest  Level Estimated
Sun 09:48:00 PM 53.6572 133.9148 228° Southwest  Level Estimated
Sun 09:49:00 PM 53.5746 133.7617 228° Southwest  Level Estimated
Sun 09:50:00 PM 53.4919 133.6093 228° Southwest  Level Estimated
Sun 09:51:00 PM 53.4090 133.4574 228° Southwest  Level Estimated
Sun 09:52:00 PM 53.3258 133.3062 227° Southwest  Level Estimated
Sun 09:53:00 PM 53.2425 133.1555 227° Southwest  Level Estimated
Sun 09:54:00 PM 53.1590 133.0054 227° Southwest  Level Estimated
Sun 09:55:00 PM 53.0753 132.8559 227° Southwest  Level Estimated
Sun 09:56:00 PM 52.9915 132.7070 227° Southwest  Level Estimated
Sun 09:57:00 PM 52.9074 132.5586 227° Southwest  Level Estimated
Sun 09:58:00 PM 52.8231 132.4108 227° Southwest  Level Estimated
Sun 09:59:00 PM 52.7387 132.2636 227° Southwest  Level Estimated
Sun 10:00:00 PM 52.6541 132.1170 226° Southwest  Level Estimated
Sun 10:01:00 PM 52.5693 131.9709 226° Southwest  Level Estimated
Sun 10:02:00 PM 52.4843 131.8254 226° Southwest  Level Estimated
Sun 10:03:00 PM 52.3992 131.6805 226° Southwest  Level Estimated
Sun 10:04:00 PM 52.3139 131.5361 226° Southwest  Level Estimated
Sun 10:05:00 PM 52.2284 131.3923 226° Southwest  Level Estimated
Sun 10:06:00 PM 52.1427 131.2490 226° Southwest  Level Estimated
Sun 10:07:00 PM 52.0568 131.1063 226° Southwest  Level Estimated
Sun 10:08:00 PM 51.9708 130.9641 226° Southwest  Level Estimated
Sun 10:09:00 PM 51.8846 130.8225 225° Southwest  Level Estimated
Sun 10:10:00 PM 51.7983 130.6814 225° Southwest  Level Estimated
Sun 10:11:00 PM 51.7118 130.5409 225° Southwest  Level Estimated
Sun 10:12:00 PM 51.6250 130.4009 225° Southwest  Level Estimated
Sun 10:13:00 PM 51.5382 130.2614 225° Southwest  Level Estimated
Sun 10:14:00 PM 51.4512 130.1225 225° Southwest  Level Estimated
Sun 10:15:00 PM 51.3640 129.9841 225° Southwest  Level Estimated
Sun 10:16:00 PM 51.2766 129.8462 225° Southwest  Level Estimated
Sun 10:17:00 PM 51.1891 129.7088 225° Southwest  Level Estimated
Sun 10:18:00 PM 51.1014 129.5720 224° Southwest  Level Estimated
Sun 10:19:00 PM 51.0136 129.4356 224° Southwest  Level Estimated
Sun 10:20:00 PM 50.9256 129.2998 224° Southwest  Level Estimated
Sun 10:21:00 PM 50.8375 129.1645 224° Southwest  Level Estimated
Sun 10:22:00 PM 50.7492 129.0298 224° Southwest  Level Estimated
Sun 10:23:00 PM 50.6607 128.8955 224° Southwest  Level Estimated
Sun 10:24:00 PM 50.5721 128.7617 224° Southwest  Level Estimated
Sun 10:25:00 PM 50.4833 128.6284 224° Southwest  Level Estimated
Sun 10:26:00 PM 50.3944 128.4957 224° Southwest  Level Estimated
Sun 10:27:00 PM 50.3054 128.3634 224° Southwest  Level Estimated
Sun 10:28:00 PM 50.2161 128.2316 223° Southwest  Level Estimated
Sun 10:29:00 PM 50.1268 128.1004 223° Southwest  Level Estimated
Sun 10:30:00 PM 50.0373 127.9696 223° Southwest  Level Estimated
Sun 10:31:00 PM 49.9476 127.8393 223° Southwest  Level Estimated
Sun 10:32:00 PM 49.8578 127.7094 223° Southwest  Level Estimated
Sun 10:33:00 PM 49.7679 127.5801 223° Southwest  Level Estimated
Sun 10:34:00 PM 49.6778 127.4513 223° Southwest  Level Estimated
Sun 10:35:00 PM 49.5875 127.3229 223° Southwest  Level Estimated
Sun 10:36:00 PM 49.4972 127.1950 223° Southwest  Level Estimated
Sun 10:37:00 PM 49.4067 127.0675 223° Southwest  Level Estimated
Sun 10:38:00 PM 49.3160 126.9406 222° Southwest  Level Estimated
Sun 10:39:00 PM 49.2252 126.8141 222° Southwest  Level Estimated
Sun 10:40:00 PM 49.1343 126.6880 222° Southwest  Level Estimated
Sun 10:41:00 PM 49.0432 126.5625 222° Southwest  Level Estimated
Sun 10:42:00 PM 48.9520 126.4374 222° Southwest  Level Estimated
Sun 10:43:00 PM 48.8607 126.3127 222° Southwest  Level Estimated
Sun 10:44:00 PM 48.7692 126.1885 222° Southwest  Level Estimated
Sun 10:45:00 PM 48.6776 126.0648 222° Southwest  Level Estimated
Sun 10:46:00 PM 48.5858 125.9415 222° Southwest  Level Estimated
Sun 10:47:00 PM 48.4940 125.8186 222° Southwest  Level Estimated
Sun 10:48:00 PM 48.4020 125.6962 221° Southwest  Level Estimated
Sun 10:49:00 PM 48.3098 125.5742 221° Southwest  Level Estimated
Sun 10:50:00 PM 48.2176 125.4527 221° Southwest  Level Estimated
Sun 10:51:00 PM 48.1252 125.3316 221° Southwest  Level Estimated
Sun 10:52:00 PM 48.0327 125.2110 221° Southwest  Level Estimated
Sun 10:53:00 PM 47.9401 125.0907 221° Southwest  Level Estimated
Sun 10:54:00 PM 47.8473 124.9709 221° Southwest  Level Estimated
Sun 10:55:00 PM 47.7544 124.8516 221° Southwest  Level Estimated
Sun 10:56:00 PM 47.6614 124.7327 221° Southwest  Level Estimated
Sun 10:57:00 PM 47.5683 124.6141 221° Southwest  Level Estimated
Sun 10:58:00 PM 47.4750 124.4960 221° Southwest  Level Estimated
Sun 10:59:00 PM 47.3816 124.3784 220° Southwest  Level Estimated
Sun 11:00:00 PM 47.2882 124.2611 220° Southwest  Level Estimated
Sun 11:01:00 PM 47.1945 124.1443 220° Southwest  Level Estimated
Sun 11:02:00 PM 47.1008 124.0278 220° Southwest  Level Estimated
Sun 11:03:00 PM 47.0070 123.9118 220° Southwest  Level Estimated
Sun 11:04:00 PM 46.9130 123.7962 220° Southwest  Level Estimated
Sun 11:05:00 PM 46.8189 123.6810 220° Southwest  Level Estimated
Sun 11:06:00 PM 46.7247 123.5662 220° Southwest  Level Estimated
Sun 11:07:00 PM 46.6304 123.4518 220° Southwest  Level Estimated
Sun 11:08:00 PM 46.5360 123.3378 220° Southwest  Level Estimated
Sun 11:09:00 PM 46.4414 123.2242 220° Southwest  Level Estimated
Sun 11:10:00 PM 46.3468 123.1109 220° Southwest  Level Estimated
Sun 11:11:00 PM 46.2520 122.9981 219° Southwest  Level Estimated
Sun 11:12:00 PM 46.1572 122.8857 219° Southwest  Level Estimated
Sun 11:13:00 PM 46.0622 122.7736 219° Southwest  Level Estimated
Sun 11:14:00 PM 45.9671 122.6620 219° Southwest  Level Estimated
Sun 11:15:00 PM 45.8719 122.5507 219° Southwest  Level Estimated
Sun 11:16:00 PM 45.7766 122.4398 219° Southwest  Level Estimated
Sun 11:17:00 PM 45.6812 122.3293 219° Southwest  Level Estimated
Sun 11:18:00 PM 45.5857 122.2191 219° Southwest  Level Estimated
Sun 11:19:00 PM 45.4900 122.1093 219° Southwest  Level Estimated
Sun 11:20:00 PM 45.3943 121.9999 219° Southwest  Level Estimated
Sun 11:21:00 PM 45.2985 121.8909 219° Southwest  Level Estimated
Sun 11:22:00 PM 45.2025 121.7823 219° Southwest  Level Estimated
Sun 11:23:00 PM 45.1065 121.6740 219° Southwest  Level Estimated
Sun 11:24:00 PM 45.0103 121.5660 218° Southwest  Level Estimated
Sun 11:25:00 PM 44.9141 121.4585 218° Southwest  Level Estimated
Sun 11:26:00 PM 44.8177 121.3512 218° Southwest  Level Estimated
Sun 11:27:00 PM 44.7213 121.2444 218° Southwest  Level Estimated
Sun 11:28:00 PM 44.6248 121.1379 218° Southwest  Level Estimated
Sun 11:29:00 PM 44.5281 121.0318 218° Southwest  Level Estimated
Sun 11:30:00 PM 44.4314 120.9260 218° Southwest  Level Estimated
Sun 11:31:00 PM 44.3345 120.8205 218° Southwest  Level Estimated
Sun 11:32:00 PM 44.2376 120.7154 218° Southwest  Level Estimated
Sun 11:33:00 PM 44.1406 120.6107 218° Southwest  Level Estimated
Sun 11:34:00 PM 44.0434 120.5063 218° Southwest  Level Estimated
Sun 11:35:00 PM 43.9462 120.4022 218° Southwest  Level Estimated
Sun 11:36:00 PM 43.8489 120.2985 218° Southwest  Level Estimated
Sun 11:37:00 PM 43.7515 120.1951 217° Southwest  Level Estimated
Sun 11:38:00 PM 43.6540 120.0921 217° Southwest  Level Estimated
Sun 11:39:00 PM 43.5564 119.9894 217° Southwest  Level Estimated
Sun 11:40:00 PM 43.4587 119.8870 217° Southwest  Level Estimated
Sun 11:41:00 PM 43.3610 119.7850 217° Southwest  Level Estimated
Sun 11:42:00 PM 43.2631 119.6832 217° Southwest  Level Estimated
Sun 11:43:00 PM 43.1651 119.5818 217° Southwest  Level Estimated
Sun 11:44:00 PM 43.0671 119.4808 217° Southwest  Level Estimated
Sun 11:45:00 PM 42.9689 119.3800 217° Southwest  Level Estimated
Sun 11:46:00 PM 42.8707 119.2796 217° Southwest  Level Estimated
Sun 11:47:00 PM 42.7724 119.1795 217° Southwest  Level Estimated
Sun 11:48:00 PM 42.6740 119.0797 217° Southwest  Level Estimated
Sun 11:49:00 PM 42.5755 118.9802 217° Southwest  Level Estimated
Sun 11:50:00 PM 42.4770 118.8811 217° Southwest  Level Estimated
Sun 11:51:00 PM 42.3783 118.7822 217° Southwest  Level Estimated
Sun 11:52:00 PM 42.2796 118.6837 216° Southwest  Level Estimated
Sun 11:53:00 PM 42.1808 118.5854 216° Southwest  Level Estimated
Sun 11:54:00 PM 42.0818 118.4875 216° Southwest  Level Estimated
Sun 11:55:00 PM 41.9829 118.3899 216° Southwest  Level Estimated
Sun 11:56:00 PM 41.8838 118.2926 216° Southwest  Level Estimated
Sun 11:57:00 PM 41.7846 118.1956 216° Southwest  Level Estimated
Sun 11:57:27 PM 41.4636 118.6142 233° Southwest 436 502 32,100  Level FlightAware ADS-B
Sun 11:58:00 PM 41.6854 118.0989 216° Southwest  Level Estimated
Sun 11:58:02 PM 41.4228 118.5329 240° Southwest 437 503 32,100  Level FlightAware ADS-B
Sun 11:58:30 PM 41.3981 118.4671 247° West 435 501 31,700 -1,525 Descending FlightAware ADS-B
Sun 11:59:01 PM 41.3740 118.3857 249° West 431 496 30,600 -2,262 Descending FlightAware ADS-B
Sun 11:59:31 PM 41.3530 118.3146 249° West 430 495 29,400 -2,200 Descending FlightAware ADS-B
Mon 12:00:01 AM 41.3307 118.2404 249° West 426 490 28,400 -2,100 Descending FlightAware ADS-B
Mon 12:00:31 AM 41.3088 118.1680 249° West 422 486 27,300 -1,900 Descending FlightAware ADS-B
Mon 12:01:01 AM 41.2870 118.0962 249° West 415 478 26,500 -1,569 Descending FlightAware ADS-B
Mon 12:01:36 AM 41.2720 118.0464 249° West 406 467 25,600 -1,760 Descending FlightAware ADS-B
Mon 12:02:16 AM 41.2363 117.9294 249° West 403 464 24,300 -1,971 Descending FlightAware ADS-B
Mon 12:02:46 AM 41.2138 117.8558 248° West 397 457 23,300 -1,869 Descending FlightAware ADS-B
Mon 12:03:17 AM 41.1929 117.7875 248° West 391 450 22,400 -1,800 Descending FlightAware ADS-B
Mon 12:03:46 AM 41.1726 117.7216 248° West 388 447 21,500 -1,831 Descending FlightAware ADS-B
Mon 12:04:16 AM 41.1519 117.6541 248° West 383 441 20,600 -1,600 Descending FlightAware ADS-B
Mon 12:04:46 AM 41.1328 117.5922 248° West 377 434 19,900 -1,574 Descending FlightAware ADS-B
Mon 12:05:17 AM 41.1129 117.5281 248° West 372 428 19,000 -1,600 Descending FlightAware ADS-B
Mon 12:05:46 AM 41.0932 117.4644 248° West 364 419 18,300 -1,525 Descending FlightAware ADS-B
Mon 12:06:16 AM 41.0738 117.4020 248° West 361 415 17,500 -1,400 Descending FlightAware ADS-B
Mon 12:06:46 AM 41.0565 117.3465 248° West 351 404 16,900 -1,500 Descending FlightAware ADS-B
Mon 12:07:16 AM 41.0382 117.2878 248° West 349 402 16,000 -1,818 Descending FlightAware ADS-B
Mon 12:07:52 AM 41.0147 117.2130 248° West 351 404 14,900 -1,727 Descending FlightAware ADS-B
Mon 12:08:22 AM 40.9905 117.1611 228° Southwest 351 404 14,100 -1,469 Descending FlightAware ADS-B
Mon 12:08:41 AM 40.9618 117.1391 207° Southwest 352 405 13,700 -1,500 Descending FlightAware ADS-B
Mon 12:09:10 AM 40.9230 117.1118 209° Southwest 348 400 12,900 -1,574 Descending FlightAware ADS-B
Mon 12:09:42 AM 40.8764 117.0782 209° Southwest 346 398 12,100 -815 Descending FlightAware ADS-B
Mon 12:10:31 AM 40.8064 117.0282 209° Southwest 344 396 11,800 -225 Descending FlightAware ADS-B
Mon 12:11:02 AM 40.7645 116.9984 209° Southwest 345 397 11,800  Level FlightAware ADS-B
Mon 12:11:29 AM 40.7328 116.9773 203° Southwest 345 397 11,800 -378 Level FlightAware ADS-B
Mon 12:13:09 AM 40.5828 116.8918 204° Southwest 328 377 11,000 -458 Descending FlightAware ADS-B
Mon 12:13:40 AM 40.5482 116.8721 204° Southwest 326 375 10,800 -492 Descending FlightAware ADS-B
Mon 12:14:10 AM 40.4979 116.8435 204° Southwest 313 360 10,500 -484 Descending FlightAware ADS-B
Mon 12:14:42 AM 40.4561 116.8196 204° Southwest 298 343 10,300 -293 Descending FlightAware ADS-B
Mon 12:15:32 AM 40.3938 116.7843 204° Southwest 298 343 10,100 -150 Descending FlightAware ADS-B
Mon 12:16:02 AM 40.3558 116.7628 204° Southwest 299 344 10,100  Level FlightAware ADS-B
Mon 12:16:32 AM 40.3158 116.7483 179° South 302 348 10,100  Level FlightAware ADS-B
Mon 12:17:11 AM 40.2611 116.7521 177° South 303 349 10,100  Level FlightAware ADS-B
Mon 12:17:42 AM 40.2180 116.7544 177° South 300 345 10,100  Level FlightAware ADS-B
Mon 12:18:12 AM 40.1821 116.7563 177° South 275 316 10,100 -273 Level FlightAware ADS-B
Mon 12:18:26 AM 40.1610 116.7575 177° South 265 305 9,900 -1,200 Descending FlightAware ADS-B
Mon 12:18:42 AM 40.1407 116.7586 177° South 259 298 9,500 -1,800 Descending FlightAware ADS-B
Mon 12:18:56 AM 40.1231 116.7595 177° South 269 310 9,000 -2,000 Descending FlightAware ADS-B
Mon 12:19:12 AM 40.1059 116.7605 177° South 275 316 8,500 -1,935 Descending FlightAware ADS-B
Mon 12:19:27 AM 40.0840 116.7616 177° South 275 316 8,000 -1,862 Descending FlightAware ADS-B
Mon 12:19:41 AM 40.0681 116.7624 177° South 272 313 7,600 -1,800 Descending FlightAware ADS-B
Mon 12:19:57 AM 40.0475 116.7634 177° South 271 312 7,100 -1,548 Descending FlightAware ADS-B
Mon 12:20:12 AM 40.0278 116.7643 177° South 268 308 6,800 -1,400 Descending FlightAware ADS-B
Mon 12:20:27 AM 40.0101 116.7652 177° South 266 306 6,400 -1,655 Descending FlightAware ADS-B
Mon 12:20:41 AM 39.9911 116.7662 177° South 265 305 6,000 -1,655 Descending FlightAware ADS-B
Mon 12:20:56 AM 39.9730 116.7671 177° South 264 304 5,600 -1,400 Descending FlightAware ADS-B
Mon 12:21:11 AM 39.9558 116.7679 178° South 259 298 5,300 -774 Descending FlightAware ADS-B
Mon 12:21:27 AM 39.9379 116.7688 177° South 245 282 5,200 -600 Descending FlightAware ADS-B
Mon 12:21:41 AM 39.9213 116.7697 177° South 235 270 5,000 -621 Descending FlightAware ADS-B
Mon 12:21:56 AM 39.9060 116.7703 177° South 222 255 4,900 -333 Descending FlightAware ADS-B
Mon 12:22:17 AM 39.8854 116.7714 177° South 206 237 4,800 -500 Descending FlightAware ADS-B
Mon 12:22:32 AM 39.8722 116.7721 177° South 198 228 4,600 -857 Descending FlightAware ADS-B
Mon 12:22:52 AM 39.8536 116.7730 177° South 197 227 4,300 -857 Descending FlightAware ADS-B
Mon 12:23:07 AM 39.8396 116.7739 175° South 196 226 4,100 -800 Descending FlightAware ADS-B
Mon 12:23:22 AM 39.8269 116.7760 172° South 195 224 3,900 -1,034 Descending FlightAware ADS-B
Mon 12:23:36 AM 39.8131 116.7776 181° South 195 224 3,600 -947 Descending FlightAware ADS-B
Mon 12:23:41 AM 39.8096 116.7769 193° South 195 224 3,600 -600 Level FlightAware ADS-B
Mon 12:23:46 AM 39.8052 116.7748 206° Southwest 194 223 3,500 -1,125 Descending FlightAware ADS-B
Mon 12:23:57 AM 39.7980 116.7666 232° Southwest 193 222 3,300 -800 Descending FlightAware ADS-B
Mon 12:24:01 AM 39.7959 116.7612 243° Southwest 192 221 3,300  Level FlightAware ADS-B
Mon 12:24:07 AM 39.7946 116.7555 255° West 193 222 3,300  Level FlightAware ADS-B
Mon 12:24:11 AM 39.7937 116.7495 261° West 194 223 3,300  Level FlightAware ADS-B
Mon 12:24:26 AM 39.7923 116.7337 265° West 193 222 3,300  Level FlightAware ADS-B
Mon 12:24:46 AM 39.7908 116.7098 268° West 194 223 3,300  Level FlightAware ADS-B
Mon 12:24:51 AM 39.7911 116.7038 278° West 194 223 3,300  Level FlightAware ADS-B
Mon 12:26:21 AM 39.8529 116.6365 327° Northwest 194 223 3,300  Level FlightAware ADS-B
Mon 12:26:36 AM 39.8638 116.6311 347° North 186 214 3,300  Level FlightAware ADS-B
Mon 12:26:51 AM 39.8782 116.6279 353° North 184 212 3,300 167 Level FlightAware ADS-B
Mon 12:27:12 AM 39.8952 116.6252 354° North 182 209 3,400 -167 Climbing FlightAware ADS-B
Mon 12:27:27 AM 39.9079 116.6232 353° North 179 206 3,200 -1,000 Descending FlightAware ADS-B
Mon 12:27:42 AM 39.9193 116.6215 354° North 174 200 2,900 -1,125 Descending FlightAware ADS-B
Mon 12:27:59 AM 39.9334 116.6193 353° North 172 198 2,600 -1,059 Descending FlightAware ADS-B
Mon 12:30:00 AM 40.0801 116.5846 350° North  Level Estimated
Mon 12:31:00 AM 40.0801 116.5846 232° Southwest  Level Estimated

Login

Don't have an account? Register now (free) for customized features, flight alerts, and more!